Time;durP1;ratioP1;P1;durP2;ratioP2;P2;SDS_P1;SDS_P2;PMS_P1;PMS_P2;Temp;Humidity;BMP_temperature;BMP_pressure;BME280_temperature;BME280_humidity;BME280_pressure;Samples;Min_cycle;Max_cycle;Signal;HPM_P1;HPM_P2
2022/06/27 00:00:17;;;;;;;3.47;1.63;;;19.00;99.90;;;;;;5041834;28;20016;-73
2022/06/27 00:02:43;;;;;;;2.08;1.42;;;19.00;99.90;;;;;;5064641;28;20532;-72
2022/06/27 00:05:10;;;;;;;6.97;1.40;;;19.00;99.90;;;;;;5072095;28;20460;-72
2022/06/27 00:07:36;;;;;;;2.40;1.23;;;19.00;99.90;;;;;;5075895;28;20396;-73
2022/06/27 00:10:03;;;;;;;5.68;1.35;;;19.00;99.90;;;;;;5057503;28;20039;-73
2022/06/27 00:12:29;;;;;;;3.22;1.30;;;18.90;99.90;;;;;;5068834;28;20370;-73
2022/06/27 00:14:55;;;;;;;2.88;1.55;;;18.90;99.90;;;;;;5068645;28;20378;-73
2022/06/27 00:17:20;;;;;;;3.22;1.38;;;18.90;99.90;;;;;;5075423;28;20020;-73
2022/06/27 00:19:46;;;;;;;1.73;1.30;;;18.90;99.90;;;;;;5057037;28;20141;-73
2022/06/27 00:22:11;;;;;;;3.00;1.30;;;18.80;99.90;;;;;;5057988;28;20032;-73
2022/06/27 00:24:39;;;;;;;2.60;1.27;;;18.80;99.90;;;;;;5055836;28;20488;-73
2022/06/27 00:27:05;;;;;;;2.08;1.35;;;18.80;99.90;;;;;;5075251;28;20099;-73
2022/06/27 00:29:31;;;;;;;4.05;1.50;;;18.80;99.90;;;;;;5061118;28;20044;-73
2022/06/27 00:31:56;;;;;;;3.03;1.40;;;18.80;99.90;;;;;;5073729;28;20029;-72
2022/06/27 00:34:22;;;;;;;2.67;1.52;;;18.70;99.90;;;;;;5043543;28;20530;-73
2022/06/27 00:36:47;;;;;;;2.25;1.40;;;18.70;99.90;;;;;;5075161;28;20081;-73
2022/06/27 00:39:13;;;;;;;3.13;1.80;;;18.60;99.90;;;;;;5075571;28;20052;-73
2022/06/27 00:41:39;;;;;;;2.97;1.52;;;18.60;99.90;;;;;;5070368;28;20083;-73
2022/06/27 00:44:04;;;;;;;3.28;1.40;;;18.50;99.90;;;;;;5066039;28;20032;-72
2022/06/27 00:46:30;;;;;;;2.70;1.42;;;18.50;99.90;;;;;;5063037;28;20029;-73
2022/06/27 00:48:56;;;;;;;3.20;1.50;;;18.50;99.90;;;;;;5075098;28;20037;-73
2022/06/27 00:51:24;;;;;;;5.03;1.98;;;18.40;99.90;;;;;;5041719;28;20382;-72
2022/06/27 00:53:54;;;;;;;4.20;1.50;;;18.40;99.90;;;;;;5062287;28;20024;-72
2022/06/27 00:56:20;;;;;;;3.85;1.80;;;18.30;99.90;;;;;;5060431;28;20032;-73
2022/06/27 00:58:45;;;;;;;5.75;1.67;;;18.30;99.90;;;;;;5041090;28;20029;-73
2022/06/27 01:01:11;;;;;;;2.85;1.63;;;18.30;99.90;;;;;;5066602;28;20021;-73
2022/06/27 01:03:37;;;;;;;5.45;1.98;;;18.30;99.90;;;;;;5070692;28;20033;-73
2022/06/27 01:06:03;;;;;;;3.45;1.50;;;18.20;99.90;;;;;;5054591;28;20387;-72
2022/06/27 01:08:29;;;;;;;2.20;1.80;;;18.20;99.90;;;;;;5056522;28;20036;-72
2022/06/27 01:10:55;;;;;;;2.78;1.67;;;18.10;99.90;;;;;;5066331;28;20564;-73
2022/06/27 01:13:21;;;;;;;3.63;1.55;;;18.10;99.90;;;;;;5068774;28;20036;-73
2022/06/27 01:15:47;;;;;;;2.40;1.52;;;18.10;99.90;;;;;;5068316;28;20474;-72
2022/06/27 01:18:13;;;;;;;3.72;1.50;;;18.10;99.90;;;;;;5066669;28;20042;-72
2022/06/27 01:20:44;;;;;;;2.20;1.67;;;18.10;99.90;;;;;;5055822;28;20031;-73
2022/06/27 01:23:10;;;;;;;4.53;1.55;;;18.00;99.90;;;;;;5054104;28;20032;-72
2022/06/27 01:25:36;;;;;;;1.83;1.35;;;18.00;99.90;;;;;;5071424;28;20318;-72
2022/06/27 01:28:04;;;;;;;5.15;1.80;;;17.90;99.90;;;;;;5074313;28;20063;-72
2022/06/27 01:30:29;;;;;;;3.33;1.50;;;17.90;99.90;;;;;;5056433;28;20025;-73
2022/06/27 01:32:55;;;;;;;2.85;1.40;;;17.80;99.90;;;;;;5056226;28;20097;-72
2022/06/27 01:35:20;;;;;;;3.03;1.50;;;17.80;99.90;;;;;;5073857;28;20048;-72
2022/06/27 01:37:46;;;;;;;4.25;2.08;;;17.80;99.90;;;;;;5056156;28;20028;-72
2022/06/27 01:40:13;;;;;;;4.15;1.45;;;17.80;99.90;;;;;;5066820;28;20032;-72
2022/06/27 01:42:39;;;;;;;2.17;1.50;;;17.80;99.90;;;;;;5054227;28;20029;-72
2022/06/27 01:45:05;;;;;;;4.80;1.65;;;17.80;99.90;;;;;;5066014;28;20040;-72
2022/06/27 01:47:31;;;;;;;2.92;1.40;;;17.70;99.90;;;;;;5056668;28;20416;-73
2022/06/27 01:49:56;;;;;;;3.28;1.60;;;17.80;99.90;;;;;;5070404;28;20049;-72
2022/06/27 01:52:23;;;;;;;4.25;1.55;;;17.70;99.90;;;;;;5044575;28;20087;-72
2022/06/27 01:54:48;;;;;;;5.00;1.42;;;17.70;99.90;;;;;;5049245;28;20033;-72
2022/06/27 01:57:16;;;;;;;2.35;1.42;;;17.70;99.90;;;;;;5053893;28;20082;-72
2022/06/27 01:59:42;;;;;;;3.22;1.48;;;17.70;99.90;;;;;;5053548;28;20025;-73
2022/06/27 02:02:08;;;;;;;3.05;1.50;;;17.70;99.90;;;;;;5062341;28;20095;-72
2022/06/27 02:04:36;;;;;;;2.58;1.58;;;17.60;99.90;;;;;;5054095;28;20029;-72
2022/06/27 02:07:03;;;;;;;3.53;1.60;;;17.60;99.90;;;;;;5040128;28;20132;-72
2022/06/27 02:09:28;;;;;;;5.68;1.70;;;17.60;99.90;;;;;;5067255;28;20040;-72
2022/06/27 02:11:55;;;;;;;2.78;1.77;;;17.60;99.90;;;;;;5053690;28;20486;-72
2022/06/27 02:14:21;;;;;;;7.30;1.88;;;17.60;99.90;;;;;;5066914;28;20025;-72
2022/06/27 02:16:46;;;;;;;3.13;1.40;;;17.50;99.90;;;;;;5059089;28;20028;-72
2022/06/27 02:19:14;;;;;;;2.75;1.60;;;17.50;99.90;;;;;;5044666;28;20107;-73
2022/06/27 02:21:41;;;;;;;2.70;1.63;;;17.50;99.90;;;;;;5055262;28;20025;-72
2022/06/27 02:24:08;;;;;;;5.15;1.40;;;17.50;99.90;;;;;;5053317;28;20146;-72
2022/06/27 02:26:33;;;;;;;3.67;1.60;;;17.40;99.90;;;;;;5053490;28;20028;-72
2022/06/27 02:29:00;;;;;;;2.95;1.42;;;17.40;99.90;;;;;;5058016;28;20032;-72
2022/06/27 02:31:27;;;;;;;4.97;1.73;;;17.40;99.90;;;;;;5052631;28;20029;-73
2022/06/27 02:33:53;;;;;;;3.05;1.73;;;17.50;99.90;;;;;;5053256;28;20481;-72
2022/06/27 02:36:26;;;;;;;2.75;1.80;;;17.60;99.90;;;;;;5059557;28;20052;-72
2022/06/27 02:38:54;;;;;;;2.58;1.45;;;17.60;99.90;;;;;;5053128;28;20031;-73
2022/06/27 02:41:20;;;;;;;3.83;1.60;;;17.60;99.90;;;;;;5033264;28;20056;-72
2022/06/27 02:43:51;;;;;;;2.92;1.65;;;17.70;99.90;;;;;;5064186;28;20025;-72
2022/06/27 02:46:19;;;;;;;2.65;1.50;;;17.70;99.90;;;;;;5052853;28;20055;-72
2022/06/27 04:27:22;;;;;;;6.93;1.83;;;17.70;99.90;;;;;;4884117;28;20481;-69
2022/06/27 04:29:48;;;;;;;3.60;1.60;;;17.70;99.90;;;;;;4960028;28;20110;-69
2022/06/27 04:32:15;;;;;;;4.50;1.75;;;17.80;99.90;;;;;;4956582;28;20369;-69
2022/06/27 04:34:41;;;;;;;2.75;1.77;;;17.80;99.90;;;;;;4939864;29;20043;-69
2022/06/27 04:37:07;;;;;;;4.05;1.85;;;17.80;99.90;;;;;;4953044;28;20023;-69
2022/06/27 04:39:33;;;;;;;2.90;1.73;;;17.90;99.90;;;;;;4956756;29;20644;-68
2022/06/27 04:41:59;;;;;;;3.80;1.67;;;18.00;99.90;;;;;;4959671;28;20523;-68
2022/06/27 04:44:25;;;;;;;3.92;1.52;;;18.00;99.90;;;;;;4956683;29;20031;-68
2022/06/27 04:46:52;;;;;;;2.60;1.42;;;18.10;99.90;;;;;;4962791;28;20022;-68
2022/06/27 04:49:19;;;;;;;3.60;1.58;;;18.10;99.90;;;;;;4959930;28;20028;-68
2022/06/27 04:51:45;;;;;;;4.20;1.90;;;18.20;99.90;;;;;;4951232;29;20396;-68
2022/06/27 04:54:11;;;;;;;2.90;2.00;;;18.30;99.90;;;;;;4951588;28;20082;-70
2022/06/27 04:56:41;;;;;;;7.80;1.88;;;18.30;99.90;;;;;;4956504;28;20074;-70
2022/06/27 04:59:06;;;;;;;4.45;2.42;;;18.40;99.90;;;;;;4954412;29;20070;-70
2022/06/27 05:01:32;;;;;;;4.60;2.50;;;18.50;99.90;;;;;;4956361;28;20015;-67
2022/06/27 05:03:58;;;;;;;5.18;2.80;;;18.50;99.90;;;;;;4955707;29;20084;-70
2022/06/27 05:06:23;;;;;;;5.72;2.75;;;18.60;99.90;;;;;;4955229;29;20023;-73
2022/06/27 05:08:49;;;;;;;4.75;2.58;;;18.70;99.90;;;;;;4953076;29;20105;-73
2022/06/27 05:11:15;;;;;;;5.63;2.33;;;18.80;99.90;;;;;;4934581;29;20534;-72
2022/06/27 05:13:40;;;;;;;3.75;1.70;;;18.90;99.90;;;;;;4952865;29;20086;-72
2022/06/27 05:16:06;;;;;;;3.38;1.65;;;19.00;99.90;;;;;;4953291;29;20042;-73
2022/06/27 05:18:33;;;;;;;6.88;1.90;;;19.10;99.90;;;;;;4950114;28;20019;-72
2022/06/27 05:20:58;;;;;;;5.28;2.00;;;19.20;99.90;;;;;;4950605;28;20433;-72
2022/06/27 05:23:24;;;;;;;2.40;1.42;;;19.20;99.90;;;;;;4950437;28;20027;-72
2022/06/27 05:25:50;;;;;;;3.03;1.60;;;19.40;99.90;;;;;;4959563;28;20039;-72
2022/06/27 05:28:16;;;;;;;4.82;1.90;;;19.50;99.90;;;;;;4953552;28;20520;-71
2022/06/27 05:30:47;;;;;;;6.25;1.80;;;19.60;99.90;;;;;;4953831;28;20041;-71
2022/06/27 05:33:13;;;;;;;5.35;1.65;;;19.60;99.90;;;;;;4955247;28;20125;-72
2022/06/27 05:35:39;;;;;;;5.00;1.50;;;19.70;99.90;;;;;;4950472;28;20371;-72
2022/06/27 05:38:05;;;;;;;2.67;1.58;;;19.80;99.90;;;;;;4949923;28;20031;-73
2022/06/27 05:40:31;;;;;;;5.22;1.60;;;19.80;99.90;;;;;;4949727;28;20024;-72
2022/06/27 05:42:57;;;;;;;2.03;1.40;;;20.00;99.90;;;;;;4951707;28;20439;-73
2022/06/27 05:45:23;;;;;;;5.95;1.70;;;20.00;99.90;;;;;;4950134;28;20059;-73
2022/06/27 05:47:49;;;;;;;4.00;2.17;;;20.10;99.90;;;;;;4936209;28;20027;-73
2022/06/27 05:50:14;;;;;;;3.55;1.65;;;20.20;99.90;;;;;;4951189;28;20035;-73
2022/06/27 05:52:41;;;;;;;4.70;1.80;;;20.30;99.90;;;;;;4938034;28;20527;-72
2022/06/27 05:55:08;;;;;;;5.20;1.80;;;20.40;99.90;;;;;;4950319;28;20420;-73
2022/06/27 05:57:34;;;;;;;2.97;1.67;;;20.50;99.90;;;;;;4953093;28;20030;-73
2022/06/27 06:00:00;;;;;;;3.03;1.90;;;20.60;99.90;;;;;;4950169;28;20019;-73
2022/06/27 06:02:26;;;;;;;3.90;1.60;;;20.70;99.90;;;;;;4950467;28;20464;-73
2022/06/27 06:04:53;;;;;;;4.55;1.60;;;20.90;99.90;;;;;;4948936;28;20034;-73
2022/06/27 06:07:22;;;;;;;3.42;1.67;;;20.90;99.90;;;;;;4952198;28;20037;-73
2022/06/27 06:09:49;;;;;;;3.35;1.70;;;21.10;99.90;;;;;;4933465;28;20034;-72
2022/06/27 06:12:17;;;;;;;4.25;1.88;;;21.20;99.90;;;;;;4951296;28;20392;-73
2022/06/27 06:14:43;;;;;;;3.80;1.75;;;21.30;99.90;;;;;;4952698;28;20539;-73
2022/06/27 06:17:09;;;;;;;3.92;1.60;;;21.40;99.90;;;;;;4950749;28;20121;-73
2022/06/27 06:19:34;;;;;;;3.10;1.80;;;21.50;99.90;;;;;;4949148;28;20032;-71
2022/06/27 06:22:00;;;;;;;4.35;1.40;;;21.50;99.90;;;;;;4948192;28;20067;-67
2022/06/27 06:24:26;;;;;;;2.33;1.80;;;21.70;99.90;;;;;;4955023;28;20031;-66
2022/06/27 06:26:56;;;;;;;3.22;1.70;;;21.80;99.90;;;;;;4955442;28;20130;-69
2022/06/27 06:29:21;;;;;;;3.85;1.60;;;21.80;99.90;;;;;;4951090;28;20031;-69
2022/06/27 06:31:48;;;;;;;10.45;2.08;;;21.80;99.90;;;;;;4959369;28;20046;-69
2022/06/27 06:34:15;;;;;;;6.80;1.67;;;21.90;99.90;;;;;;4951062;28;20049;-68
2022/06/27 06:36:43;;;;;;;3.55;1.70;;;21.90;99.90;;;;;;4955259;28;20034;-69
2022/06/27 06:39:09;;;;;;;3.60;1.85;;;22.10;99.90;;;;;;4957759;28;20034;-68
2022/06/27 06:41:36;;;;;;;4.07;1.70;;;22.20;99.90;;;;;;4956065;28;20022;-68
2022/06/27 06:44:03;;;;;;;3.55;1.67;;;22.20;99.90;;;;;;4957104;28;20081;-69
2022/06/27 06:46:30;;;;;;;4.75;1.77;;;22.40;99.90;;;;;;4953547;28;20030;-68
2022/06/27 06:48:58;;;;;;;6.10;2.20;;;22.60;99.90;;;;;;4956910;28;20058;-68
2022/06/27 06:51:24;;;;;;;3.40;2.30;;;22.60;99.90;;;;;;4954488;28;20106;-68
2022/06/27 06:53:50;;;;;;;5.25;1.83;;;22.70;99.90;;;;;;4953444;28;20035;-69
2022/06/27 06:56:16;;;;;;;7.75;2.00;;;22.80;99.90;;;;;;4958014;28;20035;-68
2022/06/27 06:58:41;;;;;;;4.22;2.03;;;22.90;99.90;;;;;;4957030;28;20032;-69
2022/06/27 07:01:08;;;;;;;4.35;1.60;;;23.00;99.90;;;;;;4955671;28;20059;-66
2022/06/27 07:03:34;;;;;;;4.10;1.88;;;23.10;99.90;;;;;;4957266;28;20388;-67
2022/06/27 07:06:02;;;;;;;6.13;2.00;;;23.00;99.90;;;;;;4959138;28;20030;-67
2022/06/27 07:08:30;;;;;;;5.03;1.67;;;23.10;99.90;;;;;;4954511;28;20050;-66
2022/06/27 07:10:56;;;;;;;7.72;1.90;;;23.10;99.90;;;;;;4954378;28;20380;-67
2022/06/27 07:13:23;;;;;;;3.33;1.70;;;23.20;99.90;;;;;;4960472;28;20030;-67
2022/06/27 07:15:48;;;;;;;8.70;1.80;;;23.30;99.90;;;;;;4956790;28;20459;-66
2022/06/27 07:18:14;;;;;;;6.93;1.75;;;23.30;99.90;;;;;;4959565;28;20062;-67
2022/06/27 07:20:40;;;;;;;2.55;1.50;;;23.40;99.90;;;;;;4956000;28;20039;-69
2022/06/27 07:23:06;;;;;;;4.63;1.98;;;23.30;99.90;;;;;;4948695;28;20488;-69
2022/06/27 07:25:35;;;;;;;2.88;2.20;;;23.50;99.90;;;;;;4951700;28;20101;-68
2022/06/27 07:28:01;;;;;;;6.85;1.75;;;23.40;99.90;;;;;;4949262;28;20038;-69
2022/06/27 07:30:26;;;;;;;6.38;2.00;;;23.50;99.90;;;;;;4952308;28;20037;-69
2022/06/27 07:32:52;;;;;;;4.25;1.73;;;23.50;99.90;;;;;;4951681;28;20750;-69
2022/06/27 07:35:18;;;;;;;5.72;2.10;;;23.50;99.90;;;;;;4949320;28;20146;-68
2022/06/27 07:37:49;;;;;;;4.75;1.60;;;23.50;99.90;;;;;;4948887;28;21307;-68
2022/06/27 07:40:17;;;;;;;5.47;1.77;;;23.60;99.90;;;;;;4943735;28;20031;-69
2022/06/27 07:42:43;;;;;;;5.85;2.08;;;23.70;99.90;;;;;;4945560;28;20027;-68
2022/06/27 07:45:10;;;;;;;4.45;1.92;;;23.70;99.90;;;;;;4950125;29;20536;-71
2022/06/27 07:47:36;;;;;;;5.88;1.70;;;23.80;99.90;;;;;;4950952;28;20498;-76
2022/06/27 07:50:03;;;;;;;5.13;1.98;;;23.80;99.90;;;;;;4934540;29;20497;-76
2022/06/27 07:52:28;;;;;;;3.05;1.67;;;23.80;99.90;;;;;;4951483;28;20046;-76
2022/06/27 07:54:55;;;;;;;6.72;1.80;;;23.80;99.90;;;;;;4951477;29;20817;-76
2022/06/27 07:57:21;;;;;;;5.50;1.70;;;23.80;99.90;;;;;;4946831;29;20070;-75
2022/06/27 07:59:48;;;;;;;2.63;1.33;;;23.90;99.90;;;;;;4951576;29;20027;-76
2022/06/27 08:02:13;;;;;;;3.05;1.50;;;24.00;99.90;;;;;;4950621;28;20019;-76
2022/06/27 08:04:41;;;;;;;4.63;1.83;;;24.00;99.90;;;;;;4950321;28;20046;-76
2022/06/27 08:07:07;;;;;;;5.18;1.55;;;24.10;99.90;;;;;;4952661;28;20038;-76
2022/06/27 08:09:32;;;;;;;2.95;1.55;;;24.10;99.90;;;;;;4937583;29;20027;-76
2022/06/27 08:12:00;;;;;;;5.60;2.00;;;24.20;99.90;;;;;;4954891;28;20027;-76
2022/06/27 08:14:25;;;;;;;2.55;1.88;;;24.30;99.90;;;;;;4954561;29;20027;-75
2022/06/27 08:16:52;;;;;;;5.28;1.83;;;24.40;99.90;;;;;;4954631;29;20042;-75
2022/06/27 08:19:23;;;;;;;4.32;1.73;;;24.40;99.90;;;;;;4954549;29;20130;-76
2022/06/27 08:21:48;;;;;;;3.70;2.08;;;24.50;99.90;;;;;;4952714;29;20107;-76
2022/06/27 08:24:17;;;;;;;4.65;1.65;;;24.60;99.90;;;;;;4953271;29;20497;-76
2022/06/27 08:26:44;;;;;;;2.83;1.50;;;24.70;99.90;;;;;;4954079;28;20040;-76
2022/06/27 08:29:10;;;;;;;4.80;2.00;;;24.60;99.90;;;;;;4952189;29;20130;-76
2022/06/27 08:31:37;;;;;;;5.32;1.80;;;24.70;99.90;;;;;;4954105;28;20110;-76
2022/06/27 08:34:04;;;;;;;4.25;1.80;;;24.80;99.90;;;;;;4936818;29;20154;-75
2022/06/27 08:36:31;;;;;;;6.05;2.10;;;24.80;99.90;;;;;;4954248;28;20388;-75
2022/06/27 08:38:58;;;;;;;5.97;1.98;;;24.80;99.90;;;;;;4936786;29;20056;-75
2022/06/27 08:41:25;;;;;;;6.88;1.70;;;24.80;99.90;;;;;;4952587;29;20038;-76
2022/06/27 08:44:00;;;;;;;5.28;1.77;;;24.80;99.90;;;;;;4951092;28;20532;-76
2022/06/27 08:46:27;;;;;;;6.47;1.80;;;24.90;99.90;;;;;;4952213;29;20404;-76
2022/06/27 08:48:53;;;;;;;6.82;1.83;;;25.00;99.90;;;;;;4950573;29;20039;-75
2022/06/27 08:51:18;;;;;;;5.38;1.95;;;25.00;99.90;;;;;;4951289;29;20031;-76
2022/06/27 08:53:45;;;;;;;8.27;1.77;;;25.10;99.90;;;;;;4950579;28;20122;-76
2022/06/27 08:56:13;;;;;;;5.75;1.58;;;25.10;99.90;;;;;;4950840;28;20126;-75
2022/06/27 08:58:40;;;;;;;3.55;1.77;;;25.10;99.90;;;;;;4951585;28;20787;-76
2022/06/27 09:01:07;;;;;;;3.28;1.73;;;25.20;99.90;;;;;;4950580;28;20023;-76
2022/06/27 09:03:34;;;;;;;8.63;1.92;;;25.30;99.90;;;;;;4950625;28;20050;-76
2022/06/27 09:06:08;;;;;;;8.40;2.00;;;25.50;99.90;;;;;;4951637;28;20105;-76
2022/06/27 09:08:54;;;;;;;3.58;2.00;;;25.60;99.90;;;;;;4960325;28;20038;-73
2022/06/27 09:11:27;;;;;;;4.03;1.77;;;25.80;99.90;;;;;;4960202;28;20023;-73
2022/06/27 09:13:53;;;;;;;6.15;2.08;;;25.80;99.90;;;;;;4960644;28;20448;-72
2022/06/27 09:16:19;;;;;;;6.22;1.90;;;25.90;99.90;;;;;;4955825;28;20066;-73
2022/06/27 09:18:44;;;;;;;4.57;1.65;;;25.90;99.90;;;;;;4953979;28;20392;-73
2022/06/27 09:21:15;;;;;;;6.82;2.15;;;25.90;99.90;;;;;;4954240;28;20102;-73
2022/06/27 09:23:49;;;;;;;5.28;1.95;;;25.90;99.90;;;;;;4964502;28;20032;-73
2022/06/27 09:26:25;;;;;;;5.72;1.80;;;26.00;99.90;;;;;;4953780;29;20058;-73
2022/06/27 09:28:50;;;;;;;4.45;1.70;;;26.20;99.90;;;;;;4953615;29;20488;-73
2022/06/27 09:31:25;;;;;;;5.75;2.22;;;26.20;99.90;;;;;;4953672;29;20023;-73
2022/06/27 09:34:08;;;;;;;5.10;2.67;;;26.30;99.90;;;;;;4957379;28;20024;-73
2022/06/27 09:36:35;;;;;;;8.93;2.67;;;26.50;99.90;;;;;;4944834;28;20035;-73
2022/06/27 09:39:03;;;;;;;5.00;1.77;;;26.70;99.90;;;;;;4954614;28;20051;-73
2022/06/27 09:41:30;;;;;;;6.00;2.20;;;27.10;99.90;;;;;;4966771;28;20046;-73
2022/06/27 09:44:03;;;;;;;4.85;1.80;;;27.40;99.90;;;;;;4953762;28;20392;-73
2022/06/27 09:46:35;;;;;;;5.20;1.80;;;27.50;99.90;;;;;;4947949;28;20037;-73
2022/06/27 09:49:01;;;;;;;3.42;1.80;;;27.70;99.90;;;;;;4954183;28;20028;-73
2022/06/27 09:51:27;;;;;;;3.60;1.67;;;27.90;99.90;;;;;;4950830;28;20067;-75
2022/06/27 09:53:58;;;;;;;6.50;1.67;;;28.10;99.90;;;;;;4949730;28;20030;-75
2022/06/27 09:56:25;;;;;;;3.88;1.92;;;28.30;99.90;;;;;;4949788;28;20062;-75
2022/06/27 09:58:50;;;;;;;7.22;1.63;;;28.50;99.90;;;;;;4950032;28;20651;-75
2022/06/27 10:01:18;;;;;;;3.20;1.63;;;28.70;99.90;;;;;;4950190;28;20031;-75
2022/06/27 10:03:43;;;;;;;13.65;2.00;;;28.90;99.90;;;;;;4949703;28;20520;-75
2022/06/27 10:06:10;;;;;;;6.00;2.03;;;29.30;99.90;;;;;;4949948;29;20038;-75
2022/06/27 10:08:42;;;;;;;2.83;1.50;;;29.60;99.90;;;;;;4936298;28;20042;-75
2022/06/27 10:11:08;;;;;;;5.68;1.67;;;29.60;99.90;;;;;;4949651;28;20113;-75
2022/06/27 10:13:36;;;;;;;8.35;1.80;;;29.70;99.90;;;;;;4949170;28;20026;-75
2022/06/27 10:16:08;;;;;;;2.00;1.55;;;29.90;99.90;;;;;;4932245;29;20031;-74
2022/06/27 10:19:03;;;;;;;4.25;1.70;;;30.00;99.90;;;;;;4949513;28;20078;-74
2022/06/27 10:21:33;;;;;;;4.70;1.52;;;30.00;99.90;;;;;;4947610;28;20807;-75
2022/06/27 10:24:24;;;;;;;4.00;1.33;;;30.00;99.90;;;;;;4938627;28;20024;-75
2022/06/27 10:26:51;;;;;;;2.20;1.42;;;30.20;99.90;;;;;;4945735;28;20127;-75
2022/06/27 10:29:33;;;;;;;4.25;1.50;;;30.30;99.90;;;;;;4949227;28;20381;-74
2022/06/27 10:32:04;;;;;;;6.43;1.30;;;30.40;99.90;;;;;;4948899;28;20031;-74
2022/06/27 10:34:38;;;;;;;3.22;1.50;;;30.40;99.90;;;;;;4949069;28;20035;-74
2022/06/27 10:37:34;;;;;;;4.63;1.50;;;30.50;99.90;;;;;;4949416;29;20062;-74
2022/06/27 10:40:18;;;;;;;2.05;1.23;;;30.60;99.90;;;;;;4949533;29;20038;-74
2022/06/27 10:42:53;;;;;;;3.05;1.48;;;30.80;99.90;;;;;;4948611;28;20031;-75
2022/06/27 10:45:28;;;;;;;5.47;1.20;;;30.80;99.90;;;;;;4940036;28;20488;-75
2022/06/27 10:48:03;;;;;;;4.32;1.40;;;30.80;99.90;;;;;;4948994;28;20035;-75
2022/06/27 10:50:41;;;;;;;2.90;1.13;;;30.90;99.90;;;;;;4948915;28;20035;-75
2022/06/27 10:53:23;;;;;;;4.70;1.35;;;31.10;99.90;;;;;;4949010;28;20090;-74
2022/06/27 10:55:48;;;;;;;2.60;1.58;;;31.10;99.90;;;;;;4931792;29;20352;-74
2022/06/27 10:58:28;;;;;;;5.63;1.48;;;31.10;99.90;;;;;;4949005;28;20102;-74
2022/06/27 11:01:12;;;;;;;4.40;1.33;;;31.10;99.90;;;;;;4948950;29;20055;-75
2022/06/27 11:03:39;;;;;;;2.80;1.58;;;31.30;99.90;;;;;;4948811;28;20106;-75
2022/06/27 11:06:05;;;;;;;2.92;1.25;;;31.40;99.90;;;;;;4948920;29;20539;-75
2022/06/27 11:08:36;;;;;;;4.03;1.27;;;31.30;99.90;;;;;;4948819;29;20035;-75
2022/06/27 11:11:04;;;;;;;6.05;1.20;;;31.50;99.90;;;;;;4948783;28;20025;-75
2022/06/27 11:13:36;;;;;;;1.73;1.20;;;31.60;99.90;;;;;;4930773;29;20173;-74
2022/06/27 11:16:03;;;;;;;2.08;1.33;;;31.70;99.90;;;;;;4945183;29;20027;-75
2022/06/27 11:18:42;;;;;;;2.08;1.40;;;31.90;99.90;;;;;;4948628;29;20034;-75
2022/06/27 11:21:12;;;;;;;2.38;1.20;;;32.00;99.90;;;;;;4948754;28;20854;-75
2022/06/27 11:23:51;;;;;;;5.10;1.20;;;32.00;99.90;;;;;;4944342;29;20449;-75
2022/06/27 11:26:21;;;;;;;2.25;1.20;;;32.00;99.90;;;;;;4948116;28;20039;-75
2022/06/27 11:34:16;;;;;;;2.23;1.33;;;32.20;99.90;;;;;;4948542;28;19961;-75
2022/06/27 11:36:42;;;;;;;2.42;1.02;;;32.30;99.90;;;;;;4948848;29;20274;-75
2022/06/27 11:39:08;;;;;;;4.47;1.42;;;32.20;99.90;;;;;;4931004;28;20023;-75
2022/06/27 11:41:38;;;;;;;3.78;1.15;;;32.40;99.90;;;;;;4949730;28;20027;-75
2022/06/27 11:44:11;;;;;;;3.88;1.30;;;32.50;99.90;;;;;;4952247;28;20591;-75
2022/06/27 11:46:49;;;;;;;2.17;1.20;;;33.00;99.90;;;;;;4946747;28;20199;-75
2022/06/27 11:49:18;;;;;;;3.50;1.30;;;33.00;99.90;;;;;;4952532;28;20031;-75
2022/06/27 11:51:48;;;;;;;1.88;1.20;;;32.80;99.90;;;;;;4952220;28;21497;-75
2022/06/27 11:54:16;;;;;;;2.47;1.30;;;32.70;99.90;;;;;;4952251;28;20031;-75
2022/06/27 11:56:44;;;;;;;1.55;0.90;;;33.00;99.90;;;;;;4952310;28;20035;-75
2022/06/27 11:59:12;;;;;;;2.45;1.10;;;33.20;99.90;;;;;;4952458;29;20035;-75
2022/06/27 12:01:56;;;;;;;2.67;1.20;;;33.30;99.90;;;;;;4952459;28;20050;-75
2022/06/27 12:04:29;;;;;;;5.20;1.35;;;33.10;99.90;;;;;;4954211;28;20114;-75
2022/06/27 12:07:06;;;;;;;2.28;1.20;;;33.40;99.90;;;;;;4952750;28;20074;-75
2022/06/27 12:09:46;;;;;;;4.50;1.38;;;33.50;98.90;;;;;;4953400;29;20050;-76
2022/06/27 12:12:17;;;;;;;7.28;1.33;;;33.60;99.50;;;;;;4952563;29;20023;-75
2022/06/27 12:14:45;;;;;;;3.03;1.17;;;33.60;99.60;;;;;;4951769;29;20484;-75
2022/06/27 12:17:13;;;;;;;2.92;1.25;;;33.70;99.30;;;;;;4951904;29;20436;-75
2022/06/27 12:19:41;;;;;;;3.00;1.40;;;33.80;99.00;;;;;;4951918;29;20046;-76
2022/06/27 12:22:07;;;;;;;2.72;1.40;;;33.80;98.00;;;;;;4949880;29;20078;-75
2022/06/27 12:24:32;;;;;;;4.65;1.35;;;33.70;99.00;;;;;;4950924;28;20050;-75
2022/06/27 12:26:58;;;;;;;2.53;1.13;;;33.80;98.30;;;;;;4951523;29;20055;-75
2022/06/27 12:29:23;;;;;;;3.58;1.60;;;34.00;96.80;;;;;;4951745;29;20031;-75
2022/06/27 12:31:49;;;;;;;4.18;1.30;;;34.10;97.10;;;;;;4951665;29;20055;-75
2022/06/27 12:34:15;;;;;;;4.30;1.73;;;34.00;96.80;;;;;;4951454;29;20093;-75
2022/06/27 12:36:41;;;;;;;4.68;1.48;;;33.90;96.50;;;;;;4950951;28;20135;-75
2022/06/27 12:39:07;;;;;;;3.97;1.40;;;33.50;97.70;;;;;;4951608;28;20023;-75
2022/06/27 12:41:34;;;;;;;4.35;1.65;;;33.50;98.50;;;;;;4951247;28;20023;-76
2022/06/27 12:44:00;;;;;;;3.40;1.77;;;33.50;97.00;;;;;;4951392;28;20055;-76
2022/06/27 12:46:26;;;;;;;2.85;1.35;;;33.60;97.70;;;;;;4933692;29;20070;-76
2022/06/27 12:48:53;;;;;;;3.30;1.50;;;33.90;96.50;;;;;;4950765;28;20031;-75
2022/06/27 12:51:19;;;;;;;5.18;1.63;;;34.00;96.60;;;;;;4951035;29;20031;-76
2022/06/27 12:53:45;;;;;;;2.38;1.20;;;33.70;96.60;;;;;;4950507;28;20046;-77
2022/06/27 12:56:11;;;;;;;3.83;1.40;;;33.20;97.90;;;;;;4933404;29;20027;-76
2022/06/27 12:58:37;;;;;;;2.20;1.30;;;33.00;98.30;;;;;;4951189;29;20086;-76
2022/06/27 13:01:03;;;;;;;3.17;1.30;;;33.00;98.20;;;;;;4951190;29;20027;-76
2022/06/27 13:03:28;;;;;;;3.40;1.27;;;32.90;99.10;;;;;;4949673;29;20027;-76
2022/06/27 13:05:54;;;;;;;2.42;1.10;;;32.70;98.50;;;;;;4951141;28;20061;-76
2022/06/27 13:08:20;;;;;;;4.35;1.10;;;32.80;99.10;;;;;;4950688;28;20480;-75
2022/06/27 13:10:45;;;;;;;4.90;1.23;;;32.70;97.70;;;;;;4950660;28;20031;-76
2022/06/27 13:13:11;;;;;;;4.65;1.20;;;32.70;97.00;;;;;;4950012;28;20042;-76
2022/06/27 13:15:37;;;;;;;2.75;1.13;;;32.60;98.60;;;;;;4950885;29;20050;-76
2022/06/27 13:18:04;;;;;;;2.90;1.10;;;32.60;98.10;;;;;;4950644;28;20067;-76
2022/06/27 13:20:30;;;;;;;3.80;1.00;;;32.60;97.60;;;;;;4950778;28;20134;-76
2022/06/27 13:22:56;;;;;;;4.78;1.38;;;32.50;99.30;;;;;;4938530;29;20023;-76
2022/06/27 13:25:22;;;;;;;4.97;1.20;;;32.20;99.50;;;;;;4950437;28;20031;-76
2022/06/27 13:27:48;;;;;;;4.68;1.30;;;32.00;99.40;;;;;;4950575;28;20047;-76
2022/06/27 13:30:15;;;;;;;4.30;1.20;;;31.80;99.90;;;;;;4951024;28;20713;-76
2022/06/27 13:32:40;;;;;;;3.95;1.10;;;31.70;99.90;;;;;;4949947;28;20031;-75
2022/06/27 13:35:07;;;;;;;6.97;1.58;;;31.50;99.90;;;;;;4950678;28;20032;-76
2022/06/27 13:37:33;;;;;;;2.83;1.00;;;31.40;99.90;;;;;;4950539;28;20133;-76
2022/06/27 13:39:59;;;;;;;1.73;1.10;;;31.00;99.90;;;;;;4950207;28;20027;-76
2022/06/27 13:42:25;;;;;;;5.63;1.42;;;30.80;99.90;;;;;;4950254;28;20485;-76
2022/06/27 13:44:50;;;;;;;2.42;1.10;;;30.70;99.90;;;;;;4951204;28;20547;-76
2022/06/27 13:47:16;;;;;;;4.45;1.25;;;30.60;99.90;;;;;;4950417;28;20409;-75
2022/06/27 13:49:42;;;;;;;4.20;1.17;;;30.40;99.90;;;;;;4932644;29;20027;-76
2022/06/27 13:52:07;;;;;;;4.68;1.05;;;30.00;99.90;;;;;;4945330;28;20395;-75
2022/06/27 13:54:33;;;;;;;5.18;1.30;;;29.70;99.90;;;;;;4961145;28;20035;-75
2022/06/27 13:56:59;;;;;;;4.22;1.17;;;29.30;99.90;;;;;;4950403;28;20028;-75
2022/06/27 13:59:24;;;;;;;2.10;1.17;;;29.10;99.90;;;;;;4950346;28;20058;-75
2022/06/27 14:01:50;;;;;;;1.40;1.13;;;28.70;99.90;;;;;;4950018;28;20059;-75
2022/06/27 14:04:16;;;;;;;3.92;1.23;;;28.60;99.90;;;;;;4949238;28;20020;-75
2022/06/27 14:09:26;;;;;;;6.18;1.10;;;28.20;99.90;;;;;;4949726;28;20504;-75
2022/06/27 14:11:51;;;;;;;4.43;1.20;;;27.90;99.90;;;;;;4954852;28;20066;-73
2022/06/27 14:14:17;;;;;;;5.45;1.55;;;27.80;99.90;;;;;;4953196;28;20070;-73
2022/06/27 14:16:43;;;;;;;3.13;1.17;;;27.70;99.90;;;;;;4949787;28;20122;-75
2022/06/27 14:19:10;;;;;;;8.80;1.40;;;27.60;99.90;;;;;;4949602;29;20031;-75
2022/06/27 14:21:36;;;;;;;3.95;1.45;;;27.50;99.90;;;;;;4948271;28;20031;-74
2022/06/27 14:24:02;;;;;;;6.97;1.50;;;27.40;99.90;;;;;;4945201;28;20026;-75
2022/06/27 14:26:28;;;;;;;2.97;1.08;;;27.20;99.90;;;;;;4949071;28;20051;-75
2022/06/27 14:28:54;;;;;;;2.78;1.33;;;27.20;99.90;;;;;;4949705;28;20054;-75
2022/06/27 14:31:19;;;;;;;4.03;1.30;;;27.10;99.90;;;;;;4949520;28;20031;-75
2022/06/27 14:33:45;;;;;;;4.38;1.25;;;27.00;99.90;;;;;;4936282;29;20067;-75
2022/06/27 14:36:10;;;;;;;5.72;1.30;;;26.80;99.90;;;;;;4935072;29;20804;-75